Time;durP1;ratioP1;P1;durP2;ratioP2;P2;SDS_P1;SDS_P2;PMS_P1;PMS_P2;Temp;Humidity;BMP_temperature;BMP_pressure;BME280_temperature;BME280_humidity;BME280_pressure;Samples;Min_cycle;Max_cycle;Signal;HPM_P1;HPM_P2
2022/12/02 00:00:52;;;;;;;10.50;7.70;;;;;;;;;;5032984;28;20198;-87
2022/12/02 00:03:22;;;;;;;11.05;8.50;;;;;;;;;;5033165;28;20320;-87
2022/12/02 00:05:54;;;;;;;13.00;8.30;;;;;;;;;;5032921;28;20309;-87
2022/12/02 00:08:24;;;;;;;13.57;10.68;;;;;;;;;;5036656;28;20213;-87
2022/12/02 00:10:53;;;;;;;12.85;10.07;;;;;;;;;;5033745;28;20226;-87
2022/12/02 00:13:25;;;;;;;18.92;13.40;;;;;;;;;;5032809;28;20222;-87
2022/12/02 00:15:57;;;;;;;14.93;11.65;;;;;;;;;;5032773;28;20596;-87
2022/12/02 00:18:25;;;;;;;13.63;10.82;;;;;;;;;;5032836;28;20571;-87
2022/12/02 00:21:04;;;;;;;14.88;10.55;;;;;;;;;;5033107;28;20198;-87
2022/12/02 00:23:31;;;;;;;13.23;11.07;;;;;;;;;;5033438;28;20334;-86
2022/12/02 00:25:59;;;;;;;17.50;12.95;;;;;;;;;;5033325;28;20578;-87
2022/12/02 00:28:28;;;;;;;17.90;11.93;;;;;;;;;;5033019;28;20228;-87
2022/12/02 00:30:55;;;;;;;16.17;11.10;;;;;;;;;;5033330;28;20260;-87
2022/12/02 00:33:23;;;;;;;15.75;11.77;;;;;;;;;;5033040;28;20306;-86
2022/12/02 00:35:50;;;;;;;16.33;12.27;;;;;;;;;;5033232;28;20645;-86
2022/12/02 00:38:18;;;;;;;16.02;12.57;;;;;;;;;;5036313;28;20279;-87
2022/12/02 00:40:45;;;;;;;12.82;10.25;;;;;;;;;;5034838;28;20293;-86
2022/12/02 00:48:44;;;;;;;12.93;9.93;;;;;;;;;;5034174;28;20232;-87
2022/12/02 00:51:12;;;;;;;14.65;11.23;;;;;;;;;;5037978;28;20289;-87
2022/12/02 00:53:39;;;;;;;15.07;10.45;;;;;;;;;;5039154;28;20250;-87
2022/12/02 00:56:07;;;;;;;15.25;9.32;;;;;;;;;;5039530;28;20212;-88
2022/12/02 00:58:35;;;;;;;15.02;10.25;;;;;;;;;;5038293;28;20225;-87
2022/12/02 01:01:05;;;;;;;11.18;8.82;;;;;;;;;;5038283;28;20305;-87
2022/12/02 01:03:32;;;;;;;10.27;7.68;;;;;;;;;;5036947;28;20394;-87
2022/12/02 01:06:00;;;;;;;10.60;8.48;;;;;;;;;;5036296;28;20237;-87
2022/12/02 01:08:27;;;;;;;8.90;8.00;;;;;;;;;;5041064;28;20784;-89
2022/12/02 01:10:55;;;;;;;10.52;7.28;;;;;;;;;;5056220;28;20246;-88
2022/12/02 01:13:25;;;;;;;8.98;6.95;;;;;;;;;;5056678;28;20281;-87
2022/12/02 01:15:54;;;;;;;8.15;7.10;;;;;;;;;;5056569;28;20680;-88
2022/12/02 01:18:23;;;;;;;11.18;9.23;;;;;;;;;;5067281;28;20192;-87
2022/12/02 01:20:50;;;;;;;9.85;7.82;;;;;;;;;;5060289;28;20236;-87
2022/12/02 01:23:18;;;;;;;10.95;8.90;;;;;;;;;;5056737;28;20308;-88
2022/12/02 01:25:47;;;;;;;10.20;8.32;;;;;;;;;;5056441;28;20232;-87
2022/12/02 01:28:15;;;;;;;8.18;7.25;;;;;;;;;;5056747;28;20693;-88
2022/12/02 01:30:42;;;;;;;8.65;7.57;;;;;;;;;;5057104;28;20292;-87
2022/12/02 01:33:10;;;;;;;12.27;9.07;;;;;;;;;;5056443;28;20224;-87
2022/12/02 01:35:39;;;;;;;10.25;9.10;;;;;;;;;;5056061;28;20807;-87
2022/12/02 01:38:07;;;;;;;7.03;5.47;;;;;;;;;;5055919;28;20216;-88
2022/12/02 01:40:34;;;;;;;9.23;6.60;;;;;;;;;;5055395;28;20261;-87
2022/12/02 01:43:02;;;;;;;8.20;6.30;;;;;;;;;;5055780;28;20268;-87
2022/12/02 01:45:30;;;;;;;8.75;7.22;;;;;;;;;;5055086;28;20230;-87
2022/12/02 01:47:58;;;;;;;8.13;7.03;;;;;;;;;;5055622;28;20627;-88
2022/12/02 01:50:26;;;;;;;9.60;8.27;;;;;;;;;;5055693;28;20236;-87
2022/12/02 01:52:55;;;;;;;11.13;8.13;;;;;;;;;;5055845;28;20257;-88
2022/12/02 01:55:25;;;;;;;10.52;8.57;;;;;;;;;;5055750;28;20293;-87
2022/12/02 01:57:53;;;;;;;10.88;8.70;;;;;;;;;;5055144;28;20293;-87
2022/12/02 02:00:21;;;;;;;7.65;6.30;;;;;;;;;;5054348;28;20265;-88
2022/12/02 02:02:49;;;;;;;8.05;6.78;;;;;;;;;;5054516;28;20276;-87
2022/12/02 02:05:20;;;;;;;11.05;9.07;;;;;;;;;;5055080;28;20226;-88
2022/12/02 02:07:50;;;;;;;6.90;6.22;;;;;;;;;;5054890;28;20652;-88
2022/12/02 02:10:19;;;;;;;7.25;6.53;;;;;;;;;;5054858;28;20248;-88
2022/12/02 02:12:48;;;;;;;6.65;5.05;;;;;;;;;;5055347;28;20682;-88
2022/12/02 02:15:17;;;;;;;8.05;6.85;;;;;;;;;;5054963;28;20311;-88
2022/12/02 02:17:45;;;;;;;7.18;6.45;;;;;;;;;;5055012;28;20198;-88
2022/12/02 02:20:17;;;;;;;4.85;4.45;;;;;;;;;;5055485;28;20244;-88
2022/12/02 02:22:49;;;;;;;5.18;4.47;;;;;;;;;;5054678;28;20246;-88
2022/12/02 02:25:19;;;;;;;6.53;5.30;;;;;;;;;;5054468;28;20313;-88
2022/12/02 02:27:51;;;;;;;8.13;6.65;;;;;;;;;;5054873;28;20202;-88
2022/12/02 02:30:19;;;;;;;9.60;7.82;;;;;;;;;;5054852;28;20274;-88
2022/12/02 02:32:47;;;;;;;8.63;6.78;;;;;;;;;;5054629;28;20225;-88
2022/12/02 02:35:15;;;;;;;11.73;8.02;;;;;;;;;;5054607;28;20229;-88
2022/12/02 02:37:43;;;;;;;8.35;6.63;;;;;;;;;;5054411;28;20296;-88
2022/12/02 02:40:14;;;;;;;7.32;6.55;;;;;;;;;;5054299;28;20300;-89
2022/12/02 02:42:44;;;;;;;8.55;7.00;;;;;;;;;;5054453;28;20289;-88
2022/12/02 02:45:12;;;;;;;7.97;6.65;;;;;;;;;;5054723;28;20641;-88
2022/12/02 02:47:40;;;;;;;7.93;6.32;;;;;;;;;;5054285;28;20224;-87
2022/12/02 02:50:09;;;;;;;7.70;6.38;;;;;;;;;;5054409;28;20718;-88
2022/12/02 02:52:36;;;;;;;9.43;6.95;;;;;;;;;;5054290;28;20208;-88
2022/12/02 02:55:05;;;;;;;10.60;7.75;;;;;;;;;;5054980;28;20297;-87
2022/12/02 02:57:33;;;;;;;8.35;7.22;;;;;;;;;;5055115;28;20201;-88
2022/12/02 03:00:03;;;;;;;8.38;6.28;;;;;;;;;;5053984;28;20204;-88
2022/12/02 03:02:31;;;;;;;8.18;7.25;;;;;;;;;;5054103;28;20292;-88
2022/12/02 03:04:59;;;;;;;7.15;5.82;;;;;;;;;;5054125;28;20217;-88
2022/12/02 03:07:26;;;;;;;6.32;5.68;;;;;;;;;;5054324;28;20330;-88
2022/12/02 03:09:54;;;;;;;4.80;4.35;;;;;;;;;;5053561;28;20289;-88
2022/12/02 03:12:22;;;;;;;9.68;6.72;;;;;;;;;;5054587;28;20202;-88
2022/12/02 03:14:50;;;;;;;8.70;6.20;;;;;;;;;;5053755;28;20255;-88
2022/12/02 03:17:19;;;;;;;7.28;5.38;;;;;;;;;;5053311;28;20313;-88
2022/12/02 03:19:48;;;;;;;7.03;5.47;;;;;;;;;;5053659;28;20198;-88
2022/12/02 03:22:15;;;;;;;5.68;4.45;;;;;;;;;;5053886;28;20635;-88
2022/12/02 03:24:43;;;;;;;5.82;5.15;;;;;;;;;;5054051;28;20304;-88
2022/12/02 03:27:12;;;;;;;5.78;5.03;;;;;;;;;;5053823;28;20235;-88
2022/12/02 03:29:41;;;;;;;5.38;4.50;;;;;;;;;;5054036;28;20198;-88
2022/12/02 03:32:09;;;;;;;4.70;4.20;;;;;;;;;;5054096;28;20197;-89
2022/12/02 03:34:39;;;;;;;5.18;4.70;;;;;;;;;;5053204;28;20703;-87
2022/12/02 03:37:07;;;;;;;6.25;5.05;;;;;;;;;;5053388;28;20233;-88
2022/12/02 03:39:34;;;;;;;4.72;4.28;;;;;;;;;;5053097;28;20296;-88
2022/12/02 03:42:02;;;;;;;5.07;4.50;;;;;;;;;;5053380;28;20211;-88
2022/12/02 03:44:30;;;;;;;4.63;4.18;;;;;;;;;;5053524;28;20328;-88
2022/12/02 03:46:58;;;;;;;5.75;5.15;;;;;;;;;;5053620;28;20224;-88
2022/12/02 03:49:26;;;;;;;8.25;5.32;;;;;;;;;;5053115;28;20220;-88
2022/12/02 03:51:55;;;;;;;5.60;4.50;;;;;;;;;;5053222;28;20284;-88
2022/12/02 03:54:23;;;;;;;5.03;4.63;;;;;;;;;;5053312;28;20334;-87
2022/12/02 03:56:50;;;;;;;6.75;5.03;;;;;;;;;;5053421;28;20296;-87
2022/12/02 03:59:21;;;;;;;5.45;4.35;;;;;;;;;;5052926;28;20284;-88
2022/12/02 04:01:48;;;;;;;6.65;4.93;;;;;;;;;;5053624;28;20286;-88
2022/12/02 04:04:16;;;;;;;5.35;4.40;;;;;;;;;;5052977;28;20315;-89
2022/12/02 04:06:44;;;;;;;5.88;5.10;;;;;;;;;;5053298;28;20667;-88
2022/12/02 04:09:12;;;;;;;7.50;5.53;;;;;;;;;;5052972;28;20290;-88
2022/12/02 04:11:40;;;;;;;8.30;6.43;;;;;;;;;;5053439;28;20292;-88
2022/12/02 04:14:07;;;;;;;11.05;7.70;;;;;;;;;;5053978;28;20308;-88
2022/12/02 04:16:35;;;;;;;10.85;7.47;;;;;;;;;;5053548;28;20205;-87
2022/12/02 04:19:03;;;;;;;11.18;7.55;;;;;;;;;;5053044;28;20217;-88
2022/12/02 04:21:35;;;;;;;10.80;7.65;;;;;;;;;;5053232;28;20294;-89
2022/12/02 04:24:02;;;;;;;8.95;6.70;;;;;;;;;;5054533;28;20221;-88
2022/12/02 04:26:31;;;;;;;8.50;7.15;;;;;;;;;;5057106;28;20221;-88
2022/12/02 04:28:59;;;;;;;7.75;6.32;;;;;;;;;;5057186;28;20274;-89
2022/12/02 04:31:26;;;;;;;6.88;5.43;;;;;;;;;;5057176;28;20633;-88
2022/12/02 04:33:54;;;;;;;9.40;7.25;;;;;;;;;;5057274;28;20241;-88
2022/12/02 04:36:21;;;;;;;6.85;6.20;;;;;;;;;;5057277;28;20289;-88
2022/12/02 04:38:49;;;;;;;5.90;5.05;;;;;;;;;;5056766;28;20263;-89
2022/12/02 04:41:16;;;;;;;9.02;6.15;;;;;;;;;;5056809;28;20284;-88
2022/12/02 04:43:48;;;;;;;6.03;5.28;;;;;;;;;;5057654;28;20213;-88
2022/12/02 04:46:29;;;;;;;4.68;4.20;;;;;;;;;;5057485;28;20306;-88
2022/12/02 04:48:57;;;;;;;5.28;4.65;;;;;;;;;;5056918;28;20252;-89
2022/12/02 04:51:25;;;;;;;5.20;4.65;;;;;;;;;;5057012;28;20201;-88
2022/12/02 04:54:11;;;;;;;7.00;5.03;;;;;;;;;;5057578;28;20249;-89
2022/12/02 04:56:39;;;;;;;5.45;4.28;;;;;;;;;;5058156;28;20200;-88
2022/12/02 04:59:08;;;;;;;6.13;5.30;;;;;;;;;;5057923;28;20229;-89
2022/12/02 05:01:35;;;;;;;6.68;5.32;;;;;;;;;;5057863;28;20204;-88
2022/12/02 05:04:03;;;;;;;8.63;6.60;;;;;;;;;;5057180;28;20600;-88
2022/12/02 05:06:30;;;;;;;8.18;6.45;;;;;;;;;;5057010;28;20722;-89
2022/12/02 05:08:58;;;;;;;5.72;5.18;;;;;;;;;;5056920;28;20284;-89
2022/12/02 05:11:26;;;;;;;6.07;5.32;;;;;;;;;;5057044;28;20359;-88
2022/12/02 05:13:53;;;;;;;6.22;5.07;;;;;;;;;;5056786;28;20256;-88
2022/12/02 05:16:22;;;;;;;6.15;4.70;;;;;;;;;;5057453;28;20265;-89
2022/12/02 05:18:50;;;;;;;5.18;4.50;;;;;;;;;;5056676;28;20212;-87
2022/12/02 05:21:17;;;;;;;5.47;4.65;;;;;;;;;;5057856;28;20289;-88
2022/12/02 05:23:45;;;;;;;6.63;5.65;;;;;;;;;;5067320;28;20244;-88
2022/12/02 05:26:12;;;;;;;7.00;5.88;;;;;;;;;;5060449;28;20202;-89
2022/12/02 05:28:40;;;;;;;8.40;6.60;;;;;;;;;;5057604;28;20209;-89
2022/12/02 05:31:07;;;;;;;8.80;6.78;;;;;;;;;;5057293;28;20677;-89
2022/12/02 05:33:36;;;;;;;9.63;7.75;;;;;;;;;;5056780;28;20308;-88
2022/12/02 05:36:04;;;;;;;7.28;6.22;;;;;;;;;;5056623;28;20216;-88
2022/12/02 05:38:32;;;;;;;8.40;6.50;;;;;;;;;;5056040;28;20210;-88
2022/12/02 05:40:59;;;;;;;7.07;5.95;;;;;;;;;;5056026;28;20289;-85
2022/12/02 05:43:34;;;;;;;6.35;5.75;;;;;;;;;;5055712;28;20256;-85
2022/12/02 05:46:01;;;;;;;11.52;8.68;;;;;;;;;;5056965;28;20753;-85
2022/12/02 05:48:29;;;;;;;7.93;7.13;;;;;;;;;;5056059;28;20713;-85
2022/12/02 05:50:58;;;;;;;6.07;5.28;;;;;;;;;;5055606;28;20297;-85
2022/12/02 05:53:27;;;;;;;7.80;6.97;;;;;;;;;;5056227;28;20272;-86
2022/12/02 05:55:56;;;;;;;6.38;5.78;;;;;;;;;;5055789;28;20201;-85
2022/12/02 05:58:24;;;;;;;7.72;6.47;;;;;;;;;;5055214;28;20288;-85
2022/12/02 06:00:56;;;;;;;6.20;5.60;;;;;;;;;;5055891;28;20648;-86
2022/12/02 06:03:24;;;;;;;7.05;5.72;;;;;;;;;;5055440;28;20320;-85
2022/12/02 06:05:53;;;;;;;6.75;5.20;;;;;;;;;;5056404;28;20236;-85
2022/12/02 06:08:25;;;;;;;11.57;8.93;;;;;;;;;;5055909;28;20643;-85
2022/12/02 06:10:57;;;;;;;14.18;9.70;;;;;;;;;;5056033;28;20232;-85
2022/12/02 06:13:26;;;;;;;12.05;9.00;;;;;;;;;;5056268;28;20256;-84
2022/12/02 06:15:55;;;;;;;14.52;10.93;;;;;;;;;;5056581;28;20591;-86
2022/12/02 06:18:25;;;;;;;10.85;8.23;;;;;;;;;;5056057;28;20289;-83
2022/12/02 06:20:55;;;;;;;10.93;8.05;;;;;;;;;;5056348;28;20300;-84
2022/12/02 06:23:24;;;;;;;13.13;10.18;;;;;;;;;;5056132;28;20308;-85
2022/12/02 06:25:53;;;;;;;12.07;9.57;;;;;;;;;;5055875;28;20700;-85
2022/12/02 06:28:26;;;;;;;12.23;10.27;;;;;;;;;;5056096;28;20316;-85
2022/12/02 06:30:57;;;;;;;12.40;8.82;;;;;;;;;;5056143;28;20292;-84
2022/12/02 06:33:29;;;;;;;11.93;8.65;;;;;;;;;;5056418;28;20325;-85
2022/12/02 06:35:56;;;;;;;11.55;10.25;;;;;;;;;;5056209;28;20288;-85
2022/12/02 06:38:30;;;;;;;14.60;10.90;;;;;;;;;;5054808;28;20220;-85
2022/12/02 06:41:01;;;;;;;11.38;9.00;;;;;;;;;;5056091;28;20315;-85
2022/12/02 06:43:31;;;;;;;15.63;11.73;;;;;;;;;;5055304;28;20308;-85
2022/12/02 06:45:59;;;;;;;13.57;11.48;;;;;;;;;;5056094;28;20208;-85
2022/12/02 06:48:33;;;;;;;9.00;7.82;;;;;;;;;;5056965;28;20279;-85
2022/12/02 06:51:12;;;;;;;14.13;10.75;;;;;;;;;;5056403;28;20233;-85
2022/12/02 06:53:42;;;;;;;11.32;9.05;;;;;;;;;;5057390;28;20229;-83
2022/12/02 06:56:22;;;;;;;9.23;7.70;;;;;;;;;;5056034;28;20646;-85
2022/12/02 06:58:56;;;;;;;8.10;6.55;;;;;;;;;;5055367;28;20285;-87
2022/12/02 07:01:30;;;;;;;16.13;11.50;;;;;;;;;;5056079;28;20292;-85
2022/12/02 07:04:32;;;;;;;11.25;9.57;;;;;;;;;;5056924;28;20221;-83
2022/12/02 07:07:06;;;;;;;9.55;7.85;;;;;;;;;;5057263;28;20201;-82
2022/12/02 07:09:38;;;;;;;9.45;8.27;;;;;;;;;;5056131;28;20206;-84
2022/12/02 07:12:14;;;;;;;15.52;11.98;;;;;;;;;;5057087;28;20201;-83
2022/12/02 07:14:47;;;;;;;10.85;9.30;;;;;;;;;;5056932;28;20305;-85
2022/12/02 07:17:28;;;;;;;10.40;7.72;;;;;;;;;;5056539;28;20237;-84
2022/12/02 07:20:02;;;;;;;10.10;7.70;;;;;;;;;;5056168;28;20209;-85
2022/12/02 07:22:35;;;;;;;8.85;8.00;;;;;;;;;;5056969;28;20230;-84
2022/12/02 07:25:32;;;;;;;15.80;10.73;;;;;;;;;;5056641;28;20205;-85
2022/12/02 07:28:00;;;;;;;12.05;9.40;;;;;;;;;;5054770;28;20272;-84
2022/12/02 07:30:31;;;;;;;8.70;6.88;;;;;;;;;;5056172;28;20284;-85
2022/12/02 07:32:59;;;;;;;9.25;7.53;;;;;;;;;;5056482;28;20718;-83
2022/12/02 07:35:27;;;;;;;8.60;6.68;;;;;;;;;;5056033;28;20209;-83
2022/12/02 07:37:54;;;;;;;9.88;8.40;;;;;;;;;;5055165;28;20220;-85
2022/12/02 07:40:23;;;;;;;10.52;8.27;;;;;;;;;;5055835;28;20216;-85
2022/12/02 07:42:51;;;;;;;8.68;7.75;;;;;;;;;;5055839;28;20222;-84
2022/12/02 07:45:20;;;;;;;9.45;8.55;;;;;;;;;;5056692;28;20263;-85
2022/12/02 07:47:49;;;;;;;13.85;10.82;;;;;;;;;;5055724;28;20714;-84
2022/12/02 07:50:18;;;;;;;11.40;8.80;;;;;;;;;;5056023;28;20347;-85
2022/12/02 07:52:45;;;;;;;14.52;11.73;;;;;;;;;;5056395;28;20267;-85
2022/12/02 07:55:12;;;;;;;13.25;11.02;;;;;;;;;;5055818;28;20288;-85
2022/12/02 07:57:41;;;;;;;9.90;8.88;;;;;;;;;;5055736;28;20202;-85
2022/12/02 08:00:11;;;;;;;10.18;9.00;;;;;;;;;;5060430;28;20466;-85
2022/12/02 08:02:38;;;;;;;13.98;11.00;;;;;;;;;;5060054;28;20241;-84
2022/12/02 08:05:07;;;;;;;11.80;9.32;;;;;;;;;;5059137;28;20320;-85
2022/12/02 08:07:35;;;;;;;10.70;8.45;;;;;;;;;;5059668;28;20220;-83
2022/12/02 08:10:02;;;;;;;11.32;9.18;;;;;;;;;;5059221;28;20296;-85
2022/12/02 08:12:30;;;;;;;10.85;8.73;;;;;;;;;;5058932;28;20203;-84
2022/12/02 08:14:59;;;;;;;11.13;9.20;;;;;;;;;;5059393;28;20224;-84
2022/12/02 08:17:26;;;;;;;17.67;13.10;;;;;;;;;;5060335;28;20233;-85
2022/12/02 08:19:54;;;;;;;12.48;10.32;;;;;;;;;;5059717;28;20269;-84
2022/12/02 08:22:21;;;;;;;13.65;10.77;;;;;;;;;;5059637;28;20339;-85
2022/12/02 08:24:49;;;;;;;17.40;12.38;;;;;;;;;;5059230;28;20786;-83
2022/12/02 08:27:16;;;;;;;11.63;8.88;;;;;;;;;;5059520;28;20680;-83
2022/12/02 08:29:44;;;;;;;14.98;11.02;;;;;;;;;;5059877;28;20263;-84
2022/12/02 08:32:13;;;;;;;19.45;14.27;;;;;;;;;;5060310;28;20252;-85
2022/12/02 08:34:40;;;;;;;15.80;13.50;;;;;;;;;;5060664;28;20253;-83
2022/12/02 08:37:07;;;;;;;14.98;12.65;;;;;;;;;;5060050;28;20237;-84
2022/12/02 08:39:35;;;;;;;15.93;11.88;;;;;;;;;;5059821;28;20270;-84
2022/12/02 08:42:03;;;;;;;19.88;14.40;;;;;;;;;;5060241;28;20233;-84
2022/12/02 08:44:31;;;;;;;16.90;12.38;;;;;;;;;;5059681;28;20789;-84
2022/12/02 08:46:59;;;;;;;12.32;10.52;;;;;;;;;;5060318;28;20208;-84
2022/12/02 08:49:27;;;;;;;12.05;9.63;;;;;;;;;;5059941;28;20668;-84
2022/12/02 08:51:55;;;;;;;14.13;11.00;;;;;;;;;;5060136;28;20776;-84
2022/12/02 08:54:22;;;;;;;16.15;11.88;;;;;;;;;;5060438;28;20309;-83
2022/12/02 08:56:50;;;;;;;12.93;10.13;;;;;;;;;;5059991;28;20292;-87
2022/12/02 08:59:18;;;;;;;12.43;9.57;;;;;;;;;;5060357;28;20208;-84
2022/12/02 09:01:45;;;;;;;13.00;10.55;;;;;;;;;;5060973;28;20216;-85
2022/12/02 09:04:13;;;;;;;14.75;10.63;;;;;;;;;;5059470;28;20312;-83
2022/12/02 09:06:42;;;;;;;16.17;12.52;;;;;;;;;;5060755;28;20368;-83
2022/12/02 09:09:10;;;;;;;16.23;12.63;;;;;;;;;;5061906;28;20249;-85
2022/12/02 09:11:38;;;;;;;13.80;10.52;;;;;;;;;;5058793;28;20204;-86
2022/12/02 09:14:05;;;;;;;12.75;9.15;;;;;;;;;;5058249;28;20403;-84
2022/12/02 09:16:33;;;;;;;9.65;7.13;;;;;;;;;;5058880;28;20273;-84
2022/12/02 09:19:00;;;;;;;10.60;9.25;;;;;;;;;;5058613;28;20280;-85
2022/12/02 09:21:28;;;;;;;11.95;10.10;;;;;;;;;;5058687;28;20265;-85
2022/12/02 09:23:57;;;;;;;11.52;8.68;;;;;;;;;;5058019;28;20843;-84
2022/12/02 09:26:24;;;;;;;9.55;7.53;;;;;;;;;;5057703;28;20301;-86
2022/12/02 09:28:52;;;;;;;10.25;8.00;;;;;;;;;;5056861;28;20312;-86
2022/12/02 09:31:19;;;;;;;11.35;10.15;;;;;;;;;;5058383;28;20332;-86
2022/12/02 09:33:46;;;;;;;9.93;8.88;;;;;;;;;;5057512;28;20637;-85
2022/12/02 09:36:14;;;;;;;8.82;7.82;;;;;;;;;;5057110;28;20252;-86
2022/12/02 09:38:42;;;;;;;8.70;7.60;;;;;;;;;;5056490;28;20214;-86
2022/12/02 09:41:10;;;;;;;7.30;6.20;;;;;;;;;;5054432;28;20288;-88
2022/12/02 09:43:38;;;;;;;8.25;7.43;;;;;;;;;;5053957;28;20316;-86
2022/12/02 09:46:08;;;;;;;10.02;7.95;;;;;;;;;;5054007;28;20297;-88
2022/12/02 09:48:36;;;;;;;7.72;6.40;;;;;;;;;;5053865;28;20716;-89
2022/12/02 09:51:04;;;;;;;7.72;6.13;;;;;;;;;;5054081;28;20201;-89
2022/12/02 09:53:34;;;;;;;8.57;7.57;;;;;;;;;;5053730;28;20249;-88
2022/12/02 09:56:02;;;;;;;8.93;7.55;;;;;;;;;;5054572;28;20605;-89
2022/12/02 09:58:32;;;;;;;9.63;7.85;;;;;;;;;;5053957;28;20284;-89
2022/12/02 10:00:59;;;;;;;7.95;6.65;;;;;;;;;;5054049;28;20249;-89
2022/12/02 10:03:29;;;;;;;8.27;6.60;;;;;;;;;;5053744;28;20699;-88
2022/12/02 10:06:06;;;;;;;9.05;8.15;;;;;;;;;;5053618;28;20305;-87
2022/12/02 10:08:34;;;;;;;6.70;6.10;;;;;;;;;;5053776;28;20233;-88
2022/12/02 10:11:01;;;;;;;8.85;7.53;;;;;;;;;;5053344;28;20242;-87
2022/12/02 10:13:40;;;;;;;8.25;6.03;;;;;;;;;;5053622;28;20304;-87
2022/12/02 10:16:13;;;;;;;8.05;6.93;;;;;;;;;;5053739;28;20680;-88
2022/12/02 10:18:41;;;;;;;7.60;6.40;;;;;;;;;;5053237;28;20206;-87
2022/12/02 10:21:09;;;;;;;6.13;5.22;;;;;;;;;;5052565;28;20198;-86
2022/12/02 10:23:54;;;;;;;7.63;6.82;;;;;;;;;;5053542;28;20221;-88
2022/12/02 10:26:21;;;;;;;6.30;5.70;;;;;;;;;;5056865;28;20260;-86
2022/12/02 10:29:10;;;;;;;7.88;7.07;;;;;;;;;;5055837;28;20288;-86
2022/12/02 10:31:37;;;;;;;6.50;5.88;;;;;;;;;;5053521;28;20676;-88
2022/12/02 10:34:07;;;;;;;6.93;6.18;;;;;;;;;;5051530;28;20697;-87
2022/12/02 10:36:37;;;;;;;6.60;5.75;;;;;;;;;;5052598;28;20661;-87
2022/12/02 10:39:24;;;;;;;9.25;7.82;;;;;;;;;;5052320;28;20206;-87
2022/12/02 10:42:15;;;;;;;7.55;6.05;;;;;;;;;;5053145;28;20203;-87
2022/12/02 10:44:45;;;;;;;6.53;5.85;;;;;;;;;;5053473;28;20221;-87
2022/12/02 10:47:19;;;;;;;8.57;7.22;;;;;;;;;;5052981;28;20204;-87
2022/12/02 10:49:49;;;;;;;7.65;6.22;;;;;;;;;;5052609;28;20464;-87
2022/12/02 10:52:17;;;;;;;7.05;6.35;;;;;;;;;;5053065;28;20209;-86
2022/12/02 10:54:48;;;;;;;7.97;6.78;;;;;;;;;;5052765;28;20320;-87
2022/12/02 10:57:23;;;;;;;6.22;5.63;;;;;;;;;;5053079;28;20742;-86
2022/12/02 10:59:52;;;;;;;8.43;7.03;;;;;;;;;;5052758;28;20578;-87
2022/12/02 11:02:24;;;;;;;6.50;5.88;;;;;;;;;;5052785;28;20292;-87
2022/12/02 11:04:52;;;;;;;6.53;5.93;;;;;;;;;;5053028;28;20251;-86
2022/12/02 11:07:23;;;;;;;5.00;4.50;;;;;;;;;;5052802;28;20255;-87
2022/12/02 11:09:54;;;;;;;5.47;4.97;;;;;;;;;;5052410;28;20343;-88
2022/12/02 11:12:38;;;;;;;6.32;5.68;;;;;;;;;;5052503;28;20648;-87
2022/12/02 11:15:42;;;;;;;6.00;5.28;;;;;;;;;;5053081;28;20186;-87
2022/12/02 11:18:13;;;;;;;7.38;6.53;;;;;;;;;;5048284;28;20201;-87
2022/12/02 11:20:43;;;;;;;5.93;5.32;;;;;;;;;;5052764;28;20251;-85
2022/12/02 11:23:26;;;;;;;7.07;5.65;;;;;;;;;;5060294;28;20213;-87
2022/12/02 11:26:18;;;;;;;6.07;5.47;;;;;;;;;;5052770;28;20219;-86
2022/12/02 11:29:16;;;;;;;7.03;6.32;;;;;;;;;;5052773;28;20643;-86
2022/12/02 11:32:01;;;;;;;6.00;5.43;;;;;;;;;;5052210;28;20248;-89
2022/12/02 11:34:44;;;;;;;5.95;4.80;;;;;;;;;;5052264;28;20225;-86
2022/12/02 11:37:39;;;;;;;6.20;5.40;;;;;;;;;;5052361;28;20209;-86
2022/12/02 11:40:58;;;;;;;5.10;4.60;;;;;;;;;;5052085;28;20197;-86
2022/12/02 11:44:10;;;;;;;6.93;6.07;;;;;;;;;;4971442;28;20224;-90
2022/12/02 11:46:46;;;;;;;5.15;4.50;;;;;;;;;;5050360;28;20695;-87
2022/12/02 11:49:31;;;;;;;5.22;4.72;;;;;;;;;;5051773;28;20301;-87
2022/12/02 11:52:23;;;;;;;6.28;5.53;;;;;;;;;;5052030;28;20222;-87
2022/12/02 11:54:57;;;;;;;5.07;4.60;;;;;;;;;;5044802;28;20257;-88
2022/12/02 11:57:28;;;;;;;5.88;5.22;;;;;;;;;;5051999;28;20223;-86
2022/12/02 11:59:57;;;;;;;6.63;4.78;;;;;;;;;;5052090;28;20196;-86
2022/12/02 12:02:26;;;;;;;6.00;5.40;;;;;;;;;;5051947;28;20284;-86
2022/12/02 12:05:03;;;;;;;5.07;4.57;;;;;;;;;;5052142;28;20207;-86
2022/12/02 12:07:45;;;;;;;6.03;5.43;;;;;;;;;;5051862;28;20208;-87
2022/12/02 12:10:29;;;;;;;5.43;4.93;;;;;;;;;;5052025;28;20320;-87
2022/12/02 12:13:21;;;;;;;4.53;4.13;;;;;;;;;;5052262;28;20651;-84
2022/12/02 12:15:58;;;;;;;6.15;5.43;;;;;;;;;;5051771;28;20212;-86
2022/12/02 12:18:47;;;;;;;5.45;4.93;;;;;;;;;;5051174;28;20645;-84
2022/12/02 12:21:31;;;;;;;5.13;4.63;;;;;;;;;;5038471;28;20260;-85
2022/12/02 12:24:30;;;;;;;4.93;4.35;;;;;;;;;;5071398;28;20803;-84
2022/12/02 12:26:58;;;;;;;5.80;5.20;;;;;;;;;;5071864;28;20197;-85
2022/12/02 12:29:30;;;;;;;7.88;6.70;;;;;;;;;;5071843;28;20287;-88
2022/12/02 12:31:57;;;;;;;6.22;5.20;;;;;;;;;;5071716;28;20316;-84
2022/12/02 12:34:26;;;;;;;5.85;4.93;;;;;;;;;;5071854;28;20698;-85
2022/12/02 12:36:54;;;;;;;5.22;4.60;;;;;;;;;;5071577;28;20251;-84
2022/12/02 12:39:21;;;;;;;7.22;6.35;;;;;;;;;;5061883;28;20264;-84
2022/12/02 12:41:49;;;;;;;6.63;5.93;;;;;;;;;;5052119;28;20296;-84
2022/12/02 12:44:16;;;;;;;8.05;7.20;;;;;;;;;;5052893;28;20218;-84
2022/12/02 12:46:44;;;;;;;7.70;6.45;;;;;;;;;;5056154;28;20288;-84
2022/12/02 12:49:11;;;;;;;7.68;6.78;;;;;;;;;;5055222;28;20749;-84
2022/12/02 12:51:40;;;;;;;7.15;6.40;;;;;;;;;;5055551;28;20317;-84
2022/12/02 12:54:08;;;;;;;6.47;5.78;;;;;;;;;;5055832;28;20759;-86
2022/12/02 12:56:35;;;;;;;6.05;5.22;;;;;;;;;;5055425;28;20288;-84
2022/12/02 12:59:03;;;;;;;5.35;4.85;;;;;;;;;;5055038;28;20292;-84
2022/12/02 13:01:30;;;;;;;5.55;5.05;;;;;;;;;;5055379;28;20288;-83
2022/12/02 13:03:58;;;;;;;6.07;5.55;;;;;;;;;;5055367;28;20329;-84
2022/12/02 13:06:25;;;;;;;7.78;6.75;;;;;;;;;;5055413;28;20250;-84
2022/12/02 13:08:54;;;;;;;6.65;6.05;;;;;;;;;;5054844;28;20213;-84
2022/12/02 13:11:21;;;;;;;6.10;5.50;;;;;;;;;;5055258;28;20768;-83
2022/12/02 13:13:49;;;;;;;11.90;8.85;;;;;;;;;;5055294;28;20312;-83
2022/12/02 13:16:16;;;;;;;7.68;5.45;;;;;;;;;;5054725;28;20197;-84
2022/12/02 13:18:44;;;;;;;5.60;5.10;;;;;;;;;;5055072;28;20220;-84
2022/12/02 13:21:11;;;;;;;5.63;5.13;;;;;;;;;;5055191;28;20688;-84
2022/12/02 13:23:39;;;;;;;6.15;5.07;;;;;;;;;;5055017;28;20226;-83
2022/12/02 13:26:07;;;;;;;7.40;6.38;;;;;;;;;;5066595;28;20627;-84
2022/12/02 13:28:35;;;;;;;9.27;8.38;;;;;;;;;;5056685;28;20213;-85
2022/12/02 13:31:02;;;;;;;8.55;7.45;;;;;;;;;;5054313;28;20308;-84
2022/12/02 13:33:30;;;;;;;9.30;8.32;;;;;;;;;;5055666;28;20308;-85
2022/12/02 13:35:57;;;;;;;8.23;7.13;;;;;;;;;;5055518;28;20367;-84
2022/12/02 13:38:25;;;;;;;9.73;8.32;;;;;;;;;;5058950;28;20246;-85
2022/12/02 13:40:52;;;;;;;9.15;7.95;;;;;;;;;;5055164;28;20285;-86
2022/12/02 13:43:21;;;;;;;8.13;7.20;;;;;;;;;;5059484;28;20274;-84
2022/12/02 13:45:49;;;;;;;9.45;7.88;;;;;;;;;;5054211;28;20240;-85
2022/12/02 13:48:16;;;;;;;11.27;9.60;;;;;;;;;;5065459;28;20332;-84
2022/12/02 13:50:44;;;;;;;7.93;6.70;;;;;;;;;;5064157;28;20231;-85
2022/12/02 13:53:11;;;;;;;6.03;5.43;;;;;;;;;;5066370;28;20213;-85
2022/12/02 13:55:39;;;;;;;6.88;5.63;;;;;;;;;;5053840;28;20285;-84
2022/12/02 13:58:06;;;;;;;7.40;6.28;;;;;;;;;;5052555;28;20198;-84
2022/12/02 14:00:35;;;;;;;8.13;6.90;;;;;;;;;;5052839;28;20208;-83
2022/12/02 14:03:02;;;;;;;7.72;6.03;;;;;;;;;;5053657;28;20308;-84
2022/12/02 14:05:30;;;;;;;7.20;6.30;;;;;;;;;;5053934;28;20208;-84
2022/12/02 14:07:57;;;;;;;6.65;5.95;;;;;;;;;;5053374;28;20202;-85
2022/12/02 14:10:25;;;;;;;5.93;5.03;;;;;;;;;;5053942;28;20707;-84
2022/12/02 14:12:54;;;;;;;5.53;4.93;;;;;;;;;;5053723;28;20222;-83
2022/12/02 14:15:22;;;;;;;6.53;5.80;;;;;;;;;;5053677;28;20212;-84
2022/12/02 14:17:51;;;;;;;6.47;5.68;;;;;;;;;;5054377;28;20215;-85
2022/12/02 14:20:18;;;;;;;5.20;4.70;;;;;;;;;;5054220;28;20673;-84
2022/12/02 14:22:46;;;;;;;5.38;4.63;;;;;;;;;;5054474;28;20240;-85
2022/12/02 14:25:14;;;;;;;4.88;4.40;;;;;;;;;;5054596;28;20586;-84
2022/12/02 14:27:41;;;;;;;4.57;4.07;;;;;;;;;;5054575;28;20745;-84
2022/12/02 14:30:10;;;;;;;5.50;5.00;;;;;;;;;;5054375;28;20293;-84
2022/12/02 14:32:38;;;;;;;5.88;4.93;;;;;;;;;;5054826;28;20308;-84
2022/12/02 14:35:09;;;;;;;6.07;5.35;;;;;;;;;;5054170;28;20251;-85
2022/12/02 14:37:36;;;;;;;7.00;6.30;;;;;;;;;;5054538;28;20209;-84
2022/12/02 14:40:06;;;;;;;6.53;5.53;;;;;;;;;;5054292;28;20296;-84
2022/12/02 14:42:34;;;;;;;6.32;5.72;;;;;;;;;;5054055;28;20205;-84
2022/12/02 14:45:01;;;;;;;5.68;4.00;;;;;;;;;;5054637;28;20745;-85
2022/12/02 14:47:29;;;;;;;8.10;6.75;;;;;;;;;;5055613;28;20300;-84
2022/12/02 14:49:56;;;;;;;5.57;5.05;;;;;;;;;;5056268;28;20296;-85
2022/12/02 14:52:25;;;;;;;5.00;4.22;;;;;;;;;;5056521;28;20228;-84
2022/12/02 14:54:52;;;;;;;5.72;5.00;;;;;;;;;;5056053;28;20293;-83
2022/12/02 14:57:20;;;;;;;6.22;5.55;;;;;;;;;;5057256;28;20284;-83
2022/12/02 14:59:47;;;;;;;5.57;4.35;;;;;;;;;;5056373;28;20197;-83